createdAt,value
2019-03-25T00:00:36.572Z,100.00
2019-03-25T00:03:05.386Z,100.00
2019-03-25T00:05:33.856Z,100.00
2019-03-25T00:08:02.423Z,100.00
2019-03-25T00:10:30.893Z,100.00
2019-03-25T00:12:59.389Z,100.00
2019-03-25T00:15:27.858Z,100.00
2019-03-25T00:17:56.356Z,100.00
2019-03-25T00:20:24.832Z,100.00
2019-03-25T00:22:53.330Z,100.00
2019-03-25T00:25:21.795Z,100.00
2019-03-25T00:27:50.299Z,100.00
2019-03-25T00:30:18.908Z,100.00
2019-03-25T00:32:47.398Z,100.00
2019-03-25T00:35:15.871Z,100.00
2019-03-25T00:37:44.363Z,100.00
2019-03-25T00:40:13.170Z,100.00
2019-03-25T00:42:41.674Z,100.00
2019-03-25T00:45:10.305Z,98.99
2019-03-25T00:47:38.837Z,99.60
2019-03-25T00:50:07.742Z,100.00
2019-03-25T00:52:36.239Z,100.00
2019-03-25T00:55:05.746Z,100.00
2019-03-25T00:57:34.250Z,100.00
2019-03-25T01:00:02.790Z,100.00
2019-03-25T01:02:31.281Z,100.00
2019-03-25T01:04:59.750Z,100.00
2019-03-25T01:07:28.256Z,100.00
2019-03-25T01:09:56.790Z,100.00
2019-03-25T01:12:25.305Z,100.00
2019-03-25T01:14:53.842Z,100.00
2019-03-25T01:17:22.346Z,100.00
2019-03-25T01:19:50.833Z,100.00
2019-03-25T01:22:19.351Z,100.00
2019-03-25T01:24:47.797Z,100.00
2019-03-25T01:27:16.289Z,100.00
2019-03-25T01:29:44.760Z,100.00
2019-03-25T01:32:13.432Z,100.00
2019-03-25T01:34:41.904Z,100.00
2019-03-25T01:37:10.407Z,100.00
2019-03-25T01:39:38.886Z,100.00
2019-03-25T01:42:07.382Z,100.00
2019-03-25T01:44:35.855Z,100.00
2019-03-25T01:47:04.431Z,100.00
2019-03-25T01:49:32.912Z,100.00
2019-03-25T01:52:01.410Z,100.00
2019-03-25T01:54:29.888Z,100.00
2019-03-25T01:56:58.383Z,100.00
2019-03-25T01:59:26.857Z,100.00
2019-03-25T02:01:55.356Z,100.00
2019-03-25T02:04:23.836Z,100.00
2019-03-25T02:06:52.406Z,100.00
2019-03-25T02:09:20.879Z,100.00
2019-03-25T02:11:49.378Z,100.00
2019-03-25T02:14:17.855Z,100.00
2019-03-25T02:16:46.324Z,100.00
2019-03-25T02:19:14.824Z,100.00
2019-03-25T02:21:43.301Z,100.00
2019-03-25T02:24:11.915Z,100.00
2019-03-25T02:26:40.626Z,100.00
2019-03-25T02:29:09.123Z,100.00
2019-03-25T02:31:37.597Z,100.00
2019-03-25T02:34:06.097Z,100.00
2019-03-25T02:36:34.566Z,100.00
2019-03-25T02:39:03.937Z,100.00
2019-03-25T02:41:32.415Z,100.00
2019-03-25T02:44:00.908Z,100.00
2019-03-25T02:46:29.386Z,100.00
2019-03-25T02:48:57.889Z,100.00
2019-03-25T02:51:26.363Z,98.96
2019-03-25T02:53:54.858Z,98.56
2019-03-25T02:56:23.392Z,98.38
2019-03-25T02:58:51.912Z,97.39
2019-03-25T03:01:20.385Z,97.39
2019-03-25T03:03:48.881Z,96.49
2019-03-25T03:06:17.347Z,96.12
2019-03-25T03:08:47.496Z,95.16
2019-03-25T03:11:16.195Z,94.10
2019-03-25T03:13:44.725Z,94.10
2019-03-25T03:16:13.182Z,93.82
2019-03-25T03:18:41.682Z,94.83
2019-03-25T03:21:10.145Z,97.16
2019-03-25T03:23:38.648Z,97.16
2019-03-25T03:26:07.121Z,97.90
2019-03-25T03:28:35.620Z,98.41
2019-03-25T03:31:04.108Z,99.41
2019-03-25T03:33:32.586Z,99.42
2019-03-25T03:36:01.063Z,100.00
2019-03-25T03:38:29.569Z,100.00
2019-03-25T03:40:58.041Z,100.00
2019-03-25T03:43:26.535Z,99.55
2019-03-25T03:45:55.020Z,99.88
2019-03-25T03:48:23.561Z,98.75
2019-03-25T03:50:52.064Z,98.75
2019-03-25T03:53:20.556Z,98.45
2019-03-25T03:55:50.474Z,97.89
2019-03-25T03:58:19.133Z,96.67
2019-03-25T04:00:47.607Z,97.65
2019-03-25T04:03:16.105Z,100.00
2019-03-25T04:05:44.584Z,100.00
2019-03-25T04:08:13.087Z,98.26
2019-03-25T04:10:41.564Z,98.26
2019-03-25T04:13:10.060Z,100.00
2019-03-25T04:15:38.680Z,100.00
2019-03-25T04:18:07.176Z,100.00
2019-03-25T04:20:35.661Z,100.00
2019-03-25T04:23:04.157Z,100.00
2019-03-25T04:25:32.663Z,100.00
2019-03-25T04:28:01.154Z,100.00
2019-03-25T04:30:29.610Z,100.00
2019-03-25T04:32:58.110Z,99.62
2019-03-25T04:35:26.573Z,98.55
2019-03-25T04:37:56.474Z,97.52
2019-03-25T04:40:25.326Z,97.52
2019-03-25T04:42:53.798Z,98.15
2019-03-25T04:45:23.726Z,97.87
2019-03-25T04:47:52.148Z,98.48
2019-03-25T04:50:20.640Z,97.32
2019-03-25T04:52:49.124Z,96.80
2019-03-25T04:55:17.619Z,97.16
2019-03-25T04:57:46.090Z,97.13
2019-03-25T05:00:17.645Z,97.29
2019-03-25T05:02:46.118Z,96.67
2019-03-25T05:05:15.286Z,97.03
2019-03-25T05:07:43.776Z,97.14
2019-03-25T05:10:12.607Z,97.30
2019-03-25T05:12:41.079Z,96.30
2019-03-25T05:15:10.128Z,95.78
2019-03-25T05:17:38.693Z,95.26
2019-03-25T05:20:07.527Z,95.01
2019-03-25T05:22:35.999Z,95.64
2019-03-25T05:25:06.145Z,96.01
2019-03-25T05:27:34.609Z,95.59
2019-03-25T05:30:03.382Z,95.15
2019-03-25T05:32:31.851Z,93.83
2019-03-25T05:35:02.447Z,92.48
2019-03-25T05:37:30.907Z,90.57
2019-03-25T05:39:59.408Z,89.18
2019-03-25T05:42:27.875Z,90.00
2019-03-25T05:44:56.513Z,91.08
2019-03-25T05:47:25.246Z,90.81
2019-03-25T05:49:53.748Z,91.06
2019-03-25T05:52:22.220Z,91.25
2019-03-25T05:54:50.716Z,90.22
2019-03-25T05:57:19.191Z,90.36
2019-03-25T05:59:47.689Z,88.70
2019-03-25T06:02:16.156Z,87.68
2019-03-25T06:04:44.651Z,88.08
2019-03-25T06:07:13.124Z,88.78
2019-03-25T06:09:41.619Z,89.50
2019-03-25T06:12:10.091Z,89.50
2019-03-25T06:14:38.661Z,87.80
2019-03-25T06:17:07.136Z,87.13
2019-03-25T06:19:35.625Z,87.14
2019-03-25T06:22:04.093Z,86.21
2019-03-25T06:24:32.591Z,86.79
2019-03-25T06:27:01.069Z,86.49
2019-03-25T06:29:31.983Z,85.88
2019-03-25T06:31:59.750Z,86.18
2019-03-25T06:34:28.247Z,85.42
2019-03-25T06:36:56.723Z,85.67
2019-03-25T06:39:25.215Z,86.25
2019-03-25T06:41:53.698Z,85.55
2019-03-25T06:44:22.187Z,84.34
2019-03-25T06:46:50.658Z,84.07
2019-03-25T06:49:19.149Z,85.28
2019-03-25T06:51:47.620Z,85.92
2019-03-25T06:54:16.113Z,85.17
2019-03-25T06:56:44.579Z,85.06
2019-03-25T06:59:13.085Z,82.12
2019-03-25T07:01:41.555Z,78.74
2019-03-25T07:04:10.048Z,78.34
2019-03-25T07:06:38.520Z,80.59
2019-03-25T07:09:08.161Z,76.17
2019-03-25T07:11:37.467Z,77.95
2019-03-25T07:14:06.012Z,77.01
2019-03-25T07:16:34.502Z,77.22
2019-03-25T07:19:03.056Z,76.48
2019-03-25T07:21:31.549Z,76.26
2019-03-25T07:24:00.019Z,76.04
2019-03-25T07:26:28.509Z,76.86
2019-03-25T07:28:56.981Z,73.54
2019-03-25T07:31:25.472Z,75.38
2019-03-25T07:33:53.942Z,74.35
2019-03-25T07:36:22.466Z,74.18
2019-03-25T07:38:50.943Z,75.02
2019-03-25T07:41:19.443Z,74.94
2019-03-25T07:43:47.914Z,73.62
2019-03-25T07:46:16.431Z,73.22
2019-03-25T07:48:44.952Z,73.40
2019-03-25T07:51:13.437Z,72.02
2019-03-25T07:53:41.915Z,71.65
2019-03-25T07:56:10.411Z,70.16
2019-03-25T07:58:38.876Z,71.72
2019-03-25T08:01:07.363Z,70.84
2019-03-25T08:03:35.842Z,71.11
2019-03-25T08:06:04.391Z,68.92
2019-03-25T08:08:32.887Z,69.08
2019-03-25T08:11:01.379Z,68.85
2019-03-25T08:13:29.913Z,68.30
2019-03-25T08:15:58.389Z,68.34
2019-03-25T08:18:26.856Z,68.45
2019-03-25T08:20:55.354Z,68.69
2019-03-25T08:23:23.819Z,68.77
2019-03-25T08:25:52.318Z,69.44
2019-03-25T08:28:20.776Z,68.82
2019-03-25T08:30:49.282Z,69.32
2019-03-25T08:33:17.754Z,69.39
2019-03-25T08:35:46.252Z,69.87
2019-03-25T08:38:14.717Z,72.08
2019-03-25T08:40:43.210Z,73.00
2019-03-25T08:43:11.677Z,74.59
2019-03-25T08:45:40.172Z,74.12
2019-03-25T08:48:08.638Z,74.25
2019-03-25T08:50:37.134Z,76.00
2019-03-25T08:53:05.604Z,75.48
2019-03-25T08:55:35.176Z,80.41
2019-03-25T08:58:11.870Z,87.15
2019-03-25T09:00:33.861Z,91.07
2019-03-25T09:03:02.344Z,96.70
2019-03-25T09:05:30.836Z,98.78
2019-03-25T09:07:59.369Z,99.72
2019-03-25T09:10:27.870Z,100.00
2019-03-25T09:12:56.338Z,100.00
2019-03-25T09:15:24.845Z,100.00
2019-03-25T09:17:53.390Z,100.00
2019-03-25T09:20:21.877Z,99.59
2019-03-25T09:22:50.358Z,100.00
2019-03-25T09:25:19.093Z,100.00
2019-03-25T09:27:47.575Z,100.00
2019-03-25T09:30:35.752Z,100.00
2019-03-25T09:33:04.633Z,100.00
2019-03-25T09:35:33.132Z,100.00
2019-03-25T09:38:01.613Z,100.00
2019-03-25T09:40:30.125Z,100.00
2019-03-25T09:42:58.605Z,100.00
2019-03-25T09:45:27.109Z,100.00
2019-03-25T09:47:55.591Z,100.00
2019-03-25T09:50:24.088Z,100.00
2019-03-25T09:52:52.562Z,100.00
2019-03-25T09:55:21.034Z,100.00
2019-03-25T09:57:49.536Z,100.00
2019-03-25T10:00:21.588Z,100.00
2019-03-25T10:02:50.147Z,100.00
2019-03-25T10:05:18.622Z,100.00
2019-03-25T10:07:47.118Z,100.00
2019-03-25T10:10:15.658Z,100.00
2019-03-25T10:12:44.159Z,100.00
2019-03-25T10:15:13.183Z,100.00
2019-03-25T10:17:41.682Z,100.00
2019-03-25T10:20:10.494Z,100.00
2019-03-25T10:22:38.994Z,100.00
2019-03-25T10:25:09.681Z,100.00
2019-03-25T10:27:38.178Z,100.00
2019-03-25T10:30:12.301Z,100.00
2019-03-25T10:32:40.867Z,100.00
2019-03-25T10:35:09.572Z,100.00
2019-03-25T10:37:38.142Z,100.00
2019-03-25T10:40:08.855Z,100.00
2019-03-25T10:42:37.351Z,99.36
2019-03-25T10:45:07.636Z,100.00
2019-03-25T10:47:36.131Z,100.00
2019-03-25T10:50:06.443Z,99.15
2019-03-25T10:52:34.940Z,99.63
2019-03-25T10:55:04.449Z,98.07
2019-03-25T10:57:32.945Z,99.82
2019-03-25T11:00:01.421Z,100.00
2019-03-25T11:02:29.984Z,99.20
2019-03-25T11:04:58.451Z,97.92
2019-03-25T11:07:29.388Z,96.41
2019-03-25T11:09:57.130Z,97.92
2019-03-25T11:12:25.622Z,94.21
2019-03-25T11:14:54.084Z,94.36
2019-03-25T11:17:22.577Z,92.12
2019-03-25T11:19:51.058Z,94.15
2019-03-25T11:22:19.555Z,94.15
2019-03-25T11:24:48.014Z,92.69
2019-03-25T11:27:16.521Z,90.64
2019-03-25T11:29:44.989Z,90.12
2019-03-25T11:32:13.486Z,88.46
2019-03-25T11:34:41.951Z,87.90
2019-03-25T11:37:10.447Z,86.19
2019-03-25T11:39:39.381Z,85.15
2019-03-25T11:42:10.178Z,83.05
2019-03-25T11:44:38.069Z,87.93
2019-03-25T11:47:06.572Z,89.25
2019-03-25T11:49:35.042Z,85.45
2019-03-25T11:52:03.534Z,89.20
2019-03-25T11:54:32.001Z,89.74
2019-03-25T11:57:00.496Z,90.28
2019-03-25T11:59:28.960Z,92.32
2019-03-25T12:01:57.445Z,95.53
2019-03-25T12:04:25.916Z,97.73
2019-03-25T12:06:54.409Z,100.00
2019-03-25T12:09:22.882Z,100.00
2019-03-25T12:11:51.374Z,100.00
2019-03-25T12:14:19.845Z,100.00
2019-03-25T12:16:48.339Z,100.00
2019-03-25T12:19:16.811Z,100.00
2019-03-25T12:21:45.323Z,100.00
2019-03-25T12:24:13.800Z,100.00
2019-03-25T12:26:42.289Z,100.00
2019-03-25T12:29:10.762Z,84.49
2019-03-25T12:31:39.250Z,79.17
2019-03-25T12:34:07.831Z,78.26
2019-03-25T12:36:36.256Z,79.81
2019-03-25T12:39:06.748Z,76.88
2019-03-25T12:41:35.217Z,72.19
2019-03-25T12:44:04.041Z,74.39
2019-03-25T12:46:32.649Z,72.37
2019-03-25T12:49:01.141Z,76.83
2019-03-25T12:51:29.623Z,82.99
2019-03-25T12:53:58.096Z,83.77
2019-03-25T12:56:26.564Z,89.63
2019-03-25T12:58:55.048Z,85.21
2019-03-25T13:01:23.520Z,91.52
2019-03-25T13:03:52.009Z,89.46
2019-03-25T13:06:20.475Z,86.87
2019-03-25T13:08:48.959Z,90.79
2019-03-25T13:11:17.426Z,89.17
2019-03-25T13:13:45.920Z,84.77
2019-03-25T13:16:15.293Z,83.94
2019-03-25T13:18:43.790Z,77.22
2019-03-25T13:21:12.264Z,64.47
2019-03-25T13:23:40.763Z,63.46
2019-03-25T13:26:09.297Z,64.45
2019-03-25T13:28:37.789Z,57.09
2019-03-25T13:31:06.258Z,53.10
2019-03-25T13:33:34.807Z,54.28
2019-03-25T13:36:03.289Z,54.96
2019-03-25T13:38:31.780Z,60.42
2019-03-25T13:41:00.242Z,66.00
2019-03-25T13:43:28.733Z,69.37
2019-03-25T13:46:05.548Z,64.08
2019-03-25T13:48:27.429Z,64.77
2019-03-25T13:50:55.893Z,67.33
2019-03-25T13:53:24.434Z,61.60
2019-03-25T13:55:52.855Z,59.96
2019-03-25T13:58:21.351Z,52.94
2019-03-25T14:00:49.820Z,51.98
2019-03-25T14:03:18.315Z,48.36
2019-03-25T14:05:46.785Z,49.98
2019-03-25T14:08:15.281Z,54.39
2019-03-25T14:10:43.754Z,57.53
2019-03-25T14:13:12.248Z,58.80
2019-03-25T14:15:40.714Z,58.06
2019-03-25T14:18:09.205Z,56.55
2019-03-25T14:20:37.741Z,52.37
2019-03-25T14:23:06.234Z,49.71
2019-03-25T14:25:34.715Z,55.93
2019-03-25T14:28:03.279Z,60.69
2019-03-25T14:30:31.746Z,56.01
2019-03-25T14:33:00.238Z,54.84
2019-03-25T14:35:28.710Z,53.20
2019-03-25T14:37:57.210Z,48.25
2019-03-25T14:40:25.744Z,52.04
2019-03-25T14:42:54.244Z,54.00
2019-03-25T14:45:26.675Z,56.25
2019-03-25T14:47:52.935Z,57.88
2019-03-25T14:50:21.465Z,61.13
2019-03-25T14:52:49.969Z,61.23
2019-03-25T14:55:18.498Z,65.87
2019-03-25T14:57:46.989Z,64.23
2019-03-25T15:00:24.640Z,66.59
2019-03-25T15:02:45.999Z,64.92
2019-03-25T15:05:14.906Z,69.01
2019-03-25T15:07:43.451Z,72.93
2019-03-25T15:10:12.864Z,70.98
2019-03-25T15:12:41.357Z,69.76
2019-03-25T15:15:11.136Z,75.63
2019-03-25T15:17:39.597Z,78.69
2019-03-25T15:20:10.193Z,81.60
2019-03-25T15:22:38.826Z,85.22
2019-03-25T15:25:08.961Z,87.25
2019-03-25T15:27:37.427Z,89.15
2019-03-25T15:30:09.327Z,91.58
2019-03-25T15:32:37.804Z,93.91
2019-03-25T15:35:08.012Z,93.91
2019-03-25T15:37:37.061Z,93.39
2019-03-25T15:40:11.655Z,90.81
2019-03-25T15:42:40.102Z,90.45
2019-03-25T15:45:09.623Z,93.58
2019-03-25T15:47:38.925Z,93.58
2019-03-25T15:50:09.736Z,94.19
2019-03-25T15:52:38.736Z,94.58
2019-03-25T15:55:07.859Z,93.47
2019-03-25T15:57:36.340Z,94.93
2019-03-25T16:00:07.866Z,97.96
2019-03-25T16:02:36.409Z,96.90
2019-03-25T16:05:06.435Z,97.07
2019-03-25T16:07:34.889Z,95.79
2019-03-25T16:10:04.646Z,97.95
2019-03-25T16:12:33.177Z,95.85
2019-03-25T16:15:01.671Z,97.95
2019-03-25T16:17:30.140Z,97.95
2019-03-25T16:19:58.625Z,97.55
2019-03-25T16:22:27.097Z,94.61
2019-03-25T16:24:55.608Z,94.84
2019-03-25T16:27:24.080Z,94.53
2019-03-25T16:29:52.569Z,94.33
2019-03-25T16:32:21.032Z,95.88
2019-03-25T16:34:49.519Z,95.65
2019-03-25T16:37:17.980Z,95.10
2019-03-25T16:39:46.478Z,96.51
2019-03-25T16:42:14.947Z,96.99
2019-03-25T16:44:43.440Z,96.88
2019-03-25T16:47:12.267Z,97.98
2019-03-25T16:49:40.756Z,98.65
2019-03-25T16:52:09.229Z,98.71
2019-03-25T16:54:37.720Z,97.76
2019-03-25T16:57:06.168Z,97.49
2019-03-25T16:59:34.664Z,98.58
2019-03-25T17:02:03.196Z,97.48
2019-03-25T17:04:31.682Z,98.72
2019-03-25T17:07:00.156Z,97.74
2019-03-25T17:09:28.680Z,98.07
2019-03-25T17:11:57.140Z,98.16
2019-03-25T17:14:25.629Z,98.26
2019-03-25T17:16:54.097Z,97.87
2019-03-25T17:19:22.584Z,97.98
2019-03-25T17:21:58.051Z,98.16
2019-03-25T17:24:21.344Z,97.37
2019-03-25T17:26:50.377Z,98.17
2019-03-25T17:29:18.865Z,98.18
2019-03-25T17:31:47.338Z,97.76
2019-03-25T17:34:15.872Z,98.32
2019-03-25T17:36:44.364Z,98.65
2019-03-25T17:39:12.852Z,99.15
2019-03-25T17:41:41.325Z,98.93
2019-03-25T17:44:09.820Z,99.10
2019-03-25T17:46:38.280Z,99.52
2019-03-25T17:49:06.900Z,100.00
2019-03-25T17:51:35.394Z,100.00
2019-03-25T17:54:03.860Z,100.00
2019-03-25T17:56:32.430Z,100.00
2019-03-25T17:59:00.905Z,100.00
2019-03-25T18:01:32.371Z,100.00
2019-03-25T18:04:01.304Z,100.00
2019-03-25T18:06:29.834Z,99.57
2019-03-25T18:08:58.284Z,99.98
2019-03-25T18:11:26.763Z,100.00
2019-03-25T18:13:55.226Z,100.00
2019-03-25T18:16:23.713Z,100.00
2019-03-25T18:18:52.185Z,100.00
2019-03-25T18:21:20.678Z,100.00
2019-03-25T18:23:49.151Z,100.00
2019-03-25T18:26:17.640Z,100.00
2019-03-25T18:28:46.105Z,99.89
2019-03-25T18:31:14.596Z,99.30
2019-03-25T18:33:43.075Z,99.26
2019-03-25T18:36:11.570Z,99.53
2019-03-25T18:38:40.038Z,99.96
2019-03-25T18:41:08.541Z,100.00
2019-03-25T18:43:37.023Z,100.00
2019-03-25T18:46:05.525Z,99.81
2019-03-25T18:48:34.003Z,100.00
2019-03-25T18:51:02.514Z,99.90
2019-03-25T18:53:31.022Z,99.69
2019-03-25T18:55:59.640Z,99.69
2019-03-25T18:58:28.110Z,99.86
2019-03-25T19:00:56.672Z,99.36
2019-03-25T19:03:25.149Z,99.03
2019-03-25T19:05:53.796Z,98.61
2019-03-25T19:08:22.349Z,99.26
2019-03-25T19:10:50.839Z,99.45
2019-03-25T19:13:19.326Z,99.63
2019-03-25T19:15:47.815Z,100.00
2019-03-25T19:18:16.312Z,100.00
2019-03-25T19:20:44.778Z,100.00
2019-03-25T19:23:13.257Z,100.00
2019-03-25T19:25:41.739Z,100.00
2019-03-25T19:28:10.239Z,100.00
2019-03-25T19:30:38.701Z,100.00
2019-03-25T19:33:07.192Z,100.00
2019-03-25T19:35:35.666Z,100.00
2019-03-25T19:38:04.160Z,100.00
2019-03-25T19:40:32.633Z,100.00
2019-03-25T19:43:01.209Z,100.00
2019-03-25T19:45:29.677Z,100.00
2019-03-25T19:47:58.139Z,100.00
2019-03-25T19:50:26.611Z,100.00
2019-03-25T19:52:55.102Z,100.00
2019-03-25T19:55:23.565Z,100.00
2019-03-25T19:57:52.066Z,100.00
2019-03-25T20:00:23.586Z,100.00
2019-03-25T20:02:52.108Z,100.00
2019-03-25T20:05:20.552Z,100.00
2019-03-25T20:07:49.079Z,100.00
2019-03-25T20:10:32.063Z,100.00
2019-03-25T20:13:01.415Z,100.00
2019-03-25T20:15:32.651Z,100.00
2019-03-25T20:18:00.184Z,100.00
2019-03-25T20:20:28.692Z,100.00
2019-03-25T20:22:57.474Z,100.00
2019-03-25T20:25:26.065Z,100.00
2019-03-25T20:27:54.790Z,100.00
2019-03-25T20:30:23.552Z,100.00
2019-03-25T20:32:52.063Z,100.00
2019-03-25T20:35:20.663Z,100.00
2019-03-25T20:37:49.409Z,100.00
2019-03-25T20:40:19.495Z,100.00
2019-03-25T20:42:48.021Z,100.00
2019-03-25T20:45:18.306Z,100.00
2019-03-25T20:47:46.774Z,100.00
2019-03-25T20:50:15.541Z,100.00
2019-03-25T20:52:44.050Z,100.00
2019-03-25T20:55:12.637Z,100.00
2019-03-25T20:57:41.128Z,100.00
2019-03-25T21:00:11.634Z,100.00
2019-03-25T21:02:45.350Z,100.00
2019-03-25T21:05:10.504Z,100.00
2019-03-25T21:07:38.985Z,100.00
2019-03-25T21:10:08.587Z,100.00
2019-03-25T21:12:38.574Z,100.00
2019-03-25T21:15:08.984Z,100.00
2019-03-25T21:17:37.550Z,100.00
2019-03-25T21:20:07.854Z,100.00
2019-03-25T21:22:36.412Z,100.00
2019-03-25T21:25:06.674Z,100.00
2019-03-25T21:27:35.216Z,100.00
2019-03-25T21:30:03.959Z,100.00
2019-03-25T21:32:32.531Z,100.00
2019-03-25T21:35:01.063Z,100.00
2019-03-25T21:37:29.626Z,100.00
2019-03-25T21:39:59.267Z,100.00
2019-03-25T21:42:29.124Z,100.00
2019-03-25T21:44:58.006Z,100.00
2019-03-25T21:47:26.525Z,100.00
2019-03-25T21:49:55.010Z,100.00
2019-03-25T21:52:23.583Z,100.00
2019-03-25T21:54:52.239Z,100.00
2019-03-25T21:57:20.901Z,100.00
2019-03-25T21:59:49.449Z,100.00
2019-03-25T22:02:17.898Z,100.00
2019-03-25T22:04:46.370Z,100.00
2019-03-25T22:07:14.861Z,100.00
2019-03-25T22:09:43.341Z,100.00
2019-03-25T22:12:11.830Z,100.00
2019-03-25T22:14:40.298Z,100.00
2019-03-25T22:17:08.768Z,100.00
2019-03-25T22:19:37.270Z,100.00
2019-03-25T22:22:05.735Z,100.00
2019-03-25T22:24:34.225Z,100.00
2019-03-25T22:27:02.696Z,100.00
2019-03-25T22:29:31.185Z,100.00
2019-03-25T22:31:59.661Z,100.00
2019-03-25T22:34:28.180Z,100.00
2019-03-25T22:36:56.619Z,100.00
2019-03-25T22:39:25.112Z,100.00
2019-03-25T22:41:53.583Z,100.00
2019-03-25T22:44:22.078Z,100.00
2019-03-25T22:46:50.547Z,100.00
2019-03-25T22:49:19.085Z,100.00
2019-03-25T22:51:47.566Z,100.00
2019-03-25T22:54:16.067Z,100.00
2019-03-25T22:56:44.544Z,100.00
2019-03-25T22:59:13.041Z,100.00
2019-03-25T23:01:41.510Z,100.00
2019-03-25T23:04:10.004Z,100.00
2019-03-25T23:06:38.474Z,100.00
2019-03-25T23:09:08.513Z,100.00
2019-03-25T23:11:37.055Z,100.00
2019-03-25T23:14:05.575Z,100.00
2019-03-25T23:16:34.047Z,100.00
2019-03-25T23:19:02.547Z,100.00
2019-03-25T23:21:31.025Z,100.00
2019-03-25T23:23:59.530Z,100.00
2019-03-25T23:26:28.005Z,100.00
2019-03-25T23:28:56.499Z,100.00
2019-03-25T23:31:24.971Z,100.00
2019-03-25T23:33:53.485Z,100.00
2019-03-25T23:36:21.964Z,100.00
2019-03-25T23:38:50.464Z,100.00
2019-03-25T23:41:18.939Z,100.00
2019-03-25T23:43:47.438Z,100.00
2019-03-25T23:46:15.919Z,100.00
2019-03-25T23:48:44.420Z,100.00
2019-03-25T23:51:12.986Z,100.00
2019-03-25T23:53:41.474Z,100.00
2019-03-25T23:56:09.950Z,100.00
2019-03-25T23:58:38.448Z,100.00
